Time;durP1;ratioP1;P1;durP2;ratioP2;P2;SDS_P1;SDS_P2;PMS_P1;PMS_P2;Temp;Humidity;BMP_temperature;BMP_pressure;BME280_temperature;BME280_humidity;BME280_pressure;Samples;Min_cycle;Max_cycle;Signal;HPM_P1;HPM_P2
2022/02/13 00:00:15;;;;;;;8.00;3.17;;;5.40;91.20;;;;;;4992222;28;20040;-70
2022/02/13 00:02:43;;;;;;;6.65;3.13;;;5.30;91.10;;;;;;4991902;28;20340;-70
2022/02/13 00:05:09;;;;;;;;;;;5.40;91.20;;;;;;4992036;28;20039;-71
2022/02/13 00:07:35;;;;;;;9.40;2.90;;;5.30;91.10;;;;;;4991600;28;19917;-71
2022/02/13 00:10:08;;;;;;;11.00;4.03;;;5.30;91.20;;;;;;4991351;28;20384;-71
2022/02/13 00:12:35;;;;;;;7.00;2.72;;;5.30;91.20;;;;;;4991639;28;20084;-70
2022/02/13 00:15:01;;;;;;;9.77;3.13;;;5.30;91.30;;;;;;4991986;28;20034;-71
2022/02/13 00:17:26;;;;;;;9.23;3.13;;;5.30;91.30;;;;;;4991552;28;20467;-71
2022/02/13 00:19:52;;;;;;;7.45;3.25;;;5.30;91.30;;;;;;4991526;28;20030;-71
2022/02/13 00:22:18;;;;;;;9.02;3.05;;;5.30;91.30;;;;;;4991604;28;20027;-71
2022/02/13 00:24:44;;;;;;;10.68;3.15;;;5.20;91.30;;;;;;4974011;28;20050;-70
2022/02/13 00:27:11;;;;;;;6.05;3.10;;;5.30;91.30;;;;;;4990551;28;20488;-70
2022/02/13 00:29:36;;;;;;;7.25;3.25;;;5.30;91.30;;;;;;4991093;28;20035;-70
2022/02/13 00:32:04;;;;;;;6.53;3.10;;;5.30;91.30;;;;;;4991372;28;20037;-70
2022/02/13 00:34:29;;;;;;;8.00;3.37;;;5.30;91.30;;;;;;4991216;28;20038;-70
2022/02/13 00:36:55;;;;;;;13.07;3.05;;;5.30;91.20;;;;;;4991314;28;20248;-70
2022/02/13 00:39:21;;;;;;;11.30;3.72;;;5.30;91.20;;;;;;4992017;28;20037;-71
2022/02/13 00:41:47;;;;;;;9.88;3.17;;;5.30;91.20;;;;;;4991191;28;20408;-71
2022/02/13 00:44:12;;;;;;;11.35;3.60;;;5.30;91.10;;;;;;4989890;28;20414;-70
2022/02/13 00:46:38;;;;;;;11.02;2.53;;;5.30;91.20;;;;;;4991060;28;20046;-70
2022/02/13 00:49:04;;;;;;;6.30;2.63;;;5.30;91.10;;;;;;4991224;28;20030;-71
2022/02/13 00:51:31;;;;;;;7.43;3.13;;;5.30;91.10;;;;;;4990701;28;20527;-71
2022/02/13 00:53:58;;;;;;;5.53;3.05;;;5.30;91.10;;;;;;4991149;28;20073;-71
2022/02/13 00:56:25;;;;;;;8.40;3.17;;;5.30;91.10;;;;;;4991046;28;20038;-71
2022/02/13 00:58:51;;;;;;;7.15;3.13;;;5.30;91.10;;;;;;4991175;28;20054;-71
2022/02/13 01:01:17;;;;;;;9.13;3.40;;;5.30;91.00;;;;;;4990881;28;20035;-71
2022/02/13 01:03:43;;;;;;;8.10;3.10;;;5.20;91.10;;;;;;4990912;28;20030;-71
2022/02/13 01:06:09;;;;;;;8.02;2.97;;;5.30;91.10;;;;;;4991571;28;20457;-71
2022/02/13 01:08:34;;;;;;;7.90;3.03;;;5.30;91.10;;;;;;4993682;28;20122;-71
2022/02/13 01:11:00;;;;;;;8.85;4.00;;;5.20;91.10;;;;;;4994697;28;20129;-71
2022/02/13 01:13:27;;;;;;;10.48;3.20;;;5.20;91.20;;;;;;4994775;28;20042;-70
2022/02/13 01:15:53;;;;;;;7.93;3.17;;;5.20;91.20;;;;;;4994570;28;20037;-71
2022/02/13 01:18:18;;;;;;;6.50;3.08;;;5.20;91.20;;;;;;4995150;28;20042;-70
2022/02/13 01:20:44;;;;;;;8.27;3.20;;;5.10;91.20;;;;;;4994650;28;20026;-70
2022/02/13 01:23:10;;;;;;;6.07;2.75;;;5.10;91.20;;;;;;4994442;28;20052;-70
2022/02/13 01:25:35;;;;;;;5.93;3.22;;;5.20;91.20;;;;;;4994488;28;20045;-70
2022/02/13 01:28:01;;;;;;;9.18;3.00;;;5.20;91.10;;;;;;4994514;28;20045;-70
2022/02/13 01:30:27;;;;;;;8.50;2.92;;;5.20;91.10;;;;;;4994797;28;20023;-70
2022/02/13 01:32:53;;;;;;;6.20;3.42;;;5.30;91.00;;;;;;4994736;28;20062;-70
2022/02/13 01:35:19;;;;;;;10.00;2.80;;;5.20;91.00;;;;;;4994489;28;20050;-71
2022/02/13 01:37:44;;;;;;;10.38;3.50;;;5.10;91.10;;;;;;4994161;28;20138;-71
2022/02/13 01:40:11;;;;;;;13.32;3.45;;;5.10;91.10;;;;;;4994499;28;20046;-71
2022/02/13 01:42:37;;;;;;;7.93;2.88;;;5.10;91.00;;;;;;4976836;28;20026;-70
2022/02/13 01:45:03;;;;;;;6.35;3.20;;;5.10;91.00;;;;;;4994731;28;20593;-70
2022/02/13 01:47:29;;;;;;;6.50;3.20;;;5.10;91.00;;;;;;4994220;28;20104;-71
2022/02/13 01:49:56;;;;;;;8.80;3.20;;;5.10;91.00;;;;;;4994098;28;20042;-71
2022/02/13 01:52:22;;;;;;;7.35;2.80;;;5.10;91.00;;;;;;4993293;28;20033;-70
2022/02/13 01:54:47;;;;;;;12.30;3.33;;;5.30;91.10;;;;;;4994044;28;20022;-70
2022/02/13 01:57:13;;;;;;;7.75;3.00;;;5.10;91.00;;;;;;4993350;28;20026;-69
2022/02/13 01:59:40;;;;;;;7.38;3.38;;;5.10;91.00;;;;;;4994059;28;20108;-71
2022/02/13 02:02:06;;;;;;;5.47;3.03;;;5.20;91.00;;;;;;4993964;28;20177;-71
2022/02/13 02:04:31;;;;;;;7.80;3.40;;;5.10;91.00;;;;;;4993805;28;20121;-69
2022/02/13 02:06:57;;;;;;;10.02;3.08;;;5.10;90.90;;;;;;4993794;28;20463;-69
2022/02/13 02:09:26;;;;;;;6.10;3.08;;;5.30;91.00;;;;;;4994384;28;20026;-70
2022/02/13 02:11:52;;;;;;;6.05;2.90;;;5.10;90.90;;;;;;4994332;28;20089;-71
2022/02/13 02:14:18;;;;;;;6.30;3.03;;;5.10;90.90;;;;;;4993996;28;20037;-70
2022/02/13 02:16:44;;;;;;;9.93;3.20;;;5.10;90.90;;;;;;4976331;28;20034;-71
2022/02/13 02:19:11;;;;;;;6.93;3.20;;;5.10;90.90;;;;;;4992693;28;20038;-70
2022/02/13 02:21:46;;;;;;;6.20;2.80;;;5.10;90.70;;;;;;4993753;28;20037;-70
2022/02/13 02:24:16;;;;;;;11.27;2.60;;;5.20;90.80;;;;;;4993839;28;20139;-69
2022/02/13 02:26:43;;;;;;;7.20;3.25;;;5.10;90.70;;;;;;4993535;28;20037;-71
2022/02/13 02:29:08;;;;;;;9.25;3.22;;;5.10;90.70;;;;;;4993538;28;20109;-70
2022/02/13 02:31:34;;;;;;;7.78;3.08;;;5.10;90.70;;;;;;4993541;28;20089;-71
2022/02/13 02:34:00;;;;;;;8.85;3.63;;;5.10;90.70;;;;;;4993522;28;20539;-71
2022/02/13 02:36:26;;;;;;;10.98;3.40;;;5.00;90.60;;;;;;5006858;28;20491;-70
2022/02/13 02:38:52;;;;;;;7.65;3.38;;;5.00;90.60;;;;;;5013274;28;20053;-70
2022/02/13 02:41:17;;;;;;;8.02;3.40;;;5.00;90.60;;;;;;5013030;28;20113;-71
2022/02/13 02:43:44;;;;;;;7.00;3.10;;;5.10;90.50;;;;;;5013032;28;20030;-71
2022/02/13 02:46:11;;;;;;;7.65;3.30;;;5.10;90.40;;;;;;5012750;28;20040;-70
2022/02/13 02:48:37;;;;;;;9.95;3.80;;;5.20;90.30;;;;;;5012777;28;20026;-71
2022/02/13 02:51:04;;;;;;;9.70;3.40;;;5.10;90.20;;;;;;5013087;28;20101;-70
2022/02/13 02:53:30;;;;;;;10.70;3.63;;;5.00;90.20;;;;;;5012864;28;20041;-70
2022/02/13 02:55:56;;;;;;;9.45;3.60;;;5.00;90.10;;;;;;4995201;28;20459;-70
2022/02/13 02:58:23;;;;;;;6.50;2.80;;;5.00;90.00;;;;;;5012626;28;20021;-71
2022/02/13 03:00:50;;;;;;;6.30;3.07;;;5.00;89.90;;;;;;5012288;28;20034;-71
2022/02/13 03:03:17;;;;;;;11.10;3.20;;;5.00;89.90;;;;;;5013081;28;20022;-70
2022/02/13 03:05:44;;;;;;;9.50;3.27;;;5.00;89.80;;;;;;5012586;28;20045;-70
2022/02/13 03:08:09;;;;;;;9.60;3.58;;;5.00;89.80;;;;;;5012342;28;20034;-70
2022/02/13 03:10:35;;;;;;;12.40;3.47;;;5.00;89.80;;;;;;5012343;28;20041;-70
2022/02/13 03:13:01;;;;;;;8.48;3.25;;;5.00;89.70;;;;;;5012107;28;20042;-70
2022/02/13 03:15:26;;;;;;;7.80;3.25;;;5.00;90.00;;;;;;5012802;28;20026;-70
2022/02/13 03:17:52;;;;;;;3.70;2.30;;;5.00;90.10;;;;;;5012774;28;20038;-71
2022/02/13 03:20:18;;;;;;;6.07;2.65;;;5.10;90.30;;;;;;4994754;28;20278;-70
2022/02/13 03:22:43;;;;;;;5.53;2.75;;;5.10;90.40;;;;;;5011916;28;20426;-71
2022/02/13 03:25:09;;;;;;;9.98;2.58;;;5.00;90.30;;;;;;5011843;28;20120;-70
2022/02/13 03:27:34;;;;;;;3.63;2.40;;;4.90;90.50;;;;;;5011994;28;20050;-70
2022/02/13 03:30:00;;;;;;;4.32;2.72;;;4.80;90.60;;;;;;5012325;28;20026;-70
2022/02/13 03:32:26;;;;;;;4.25;2.13;;;4.80;90.40;;;;;;5011715;28;20419;-71
2022/02/13 03:34:51;;;;;;;6.40;2.60;;;4.50;90.80;;;;;;5011772;28;20372;-70
2022/02/13 03:37:17;;;;;;;6.45;2.45;;;4.40;91.10;;;;;;5011828;28;20117;-70
2022/02/13 03:39:43;;;;;;;5.72;2.50;;;4.40;91.40;;;;;;5011653;28;20091;-71
2022/02/13 03:42:09;;;;;;;7.45;2.72;;;4.40;91.20;;;;;;5012487;28;20057;-70
2022/02/13 03:44:36;;;;;;;6.97;2.60;;;4.30;91.40;;;;;;5011769;28;20455;-70
2022/02/13 03:47:04;;;;;;;6.90;2.90;;;4.50;91.20;;;;;;5011760;28;20037;-71
2022/02/13 03:49:30;;;;;;;7.13;3.00;;;4.40;91.30;;;;;;5011640;28;20121;-71
2022/02/13 03:51:56;;;;;;;7.70;3.30;;;4.40;91.10;;;;;;5011555;28;20244;-71
2022/02/13 03:54:22;;;;;;;9.35;3.40;;;4.30;91.10;;;;;;5012006;28;20022;-71
2022/02/13 03:56:48;;;;;;;9.00;3.42;;;4.40;91.10;;;;;;5011949;28;20037;-71
2022/02/13 03:59:13;;;;;;;15.23;3.45;;;4.30;91.40;;;;;;5011614;28;20030;-71
2022/02/13 04:01:40;;;;;;;8.23;3.95;;;4.30;91.00;;;;;;5011662;28;20030;-70
2022/02/13 04:04:05;;;;;;;5.97;2.97;;;4.30;91.00;;;;;;4993884;28;20026;-72
2022/02/13 04:06:31;;;;;;;8.65;3.00;;;4.30;91.00;;;;;;5011778;28;20022;-70
2022/02/13 04:08:57;;;;;;;7.72;3.13;;;4.20;91.00;;;;;;5011242;28;20120;-72
2022/02/13 04:11:22;;;;;;;7.40;3.33;;;4.20;90.90;;;;;;5011136;28;20120;-71
2022/02/13 04:13:48;;;;;;;7.10;3.33;;;4.30;90.90;;;;;;5010976;28;20045;-71
2022/02/13 04:16:13;;;;;;;9.20;3.70;;;4.20;90.90;;;;;;5011028;28;20486;-71
2022/02/13 04:18:39;;;;;;;9.80;3.05;;;4.30;90.90;;;;;;5010929;28;20026;-71
2022/02/13 04:21:04;;;;;;;8.68;3.70;;;4.30;90.90;;;;;;5011546;28;20084;-70
2022/02/13 04:23:31;;;;;;;6.55;3.55;;;4.20;90.90;;;;;;5011248;28;20080;-72
2022/02/13 04:26:01;;;;;;;11.73;3.67;;;4.20;91.00;;;;;;5010775;28;20069;-70
2022/02/13 04:28:27;;;;;;;9.07;3.33;;;4.10;91.00;;;;;;5010892;28;20040;-70
2022/02/13 04:30:56;;;;;;;7.75;3.72;;;4.10;91.10;;;;;;5010719;28;20482;-69
2022/02/13 04:33:22;;;;;;;8.73;3.55;;;4.10;91.10;;;;;;5011604;28;20117;-70
2022/02/13 04:35:48;;;;;;;9.02;3.75;;;4.10;91.10;;;;;;5010924;28;20109;-69
2022/02/13 04:38:14;;;;;;;11.85;3.95;;;4.10;91.10;;;;;;5010565;28;20549;-70
2022/02/13 04:40:39;;;;;;;10.05;3.80;;;4.20;91.10;;;;;;5011192;28;20444;-70
2022/02/13 04:43:05;;;;;;;8.75;4.07;;;4.20;91.20;;;;;;5010158;28;20021;-70
2022/02/13 04:45:30;;;;;;;10.52;3.92;;;4.00;91.20;;;;;;4993753;28;20056;-69
2022/02/13 04:47:56;;;;;;;15.48;4.40;;;4.00;91.30;;;;;;5010950;28;20125;-69
2022/02/13 04:50:22;;;;;;;9.43;3.75;;;4.00;91.50;;;;;;5010960;28;20033;-70
2022/02/13 04:52:52;;;;;;;10.70;3.90;;;4.00;91.50;;;;;;5010614;28;20030;-69
2022/02/13 04:55:18;;;;;;;11.57;4.05;;;4.00;91.50;;;;;;5010591;28;20030;-70
2022/02/13 04:57:45;;;;;;;7.85;4.47;;;4.00;91.50;;;;;;5010682;28;20037;-70
2022/02/13 05:00:11;;;;;;;6.82;3.92;;;4.00;91.50;;;;;;5011016;28;20030;-71
2022/02/13 05:02:37;;;;;;;8.30;3.83;;;4.00;91.50;;;;;;5010402;28;20076;-69
2022/02/13 05:05:03;;;;;;;9.85;4.20;;;3.90;91.60;;;;;;5010659;28;20045;-69
2022/02/13 05:07:29;;;;;;;12.90;4.55;;;4.00;91.70;;;;;;5010527;28;20463;-69
2022/02/13 05:09:55;;;;;;;10.98;4.53;;;4.00;91.70;;;;;;5010365;28;20242;-70
2022/02/13 05:12:20;;;;;;;6.22;3.60;;;4.00;91.50;;;;;;5010802;28;20519;-69
2022/02/13 05:14:46;;;;;;;10.82;4.82;;;4.10;91.60;;;;;;5010442;28;20034;-69
2022/02/13 05:17:12;;;;;;;8.73;3.97;;;4.10;91.60;;;;;;5010258;28;20061;-70
2022/02/13 05:19:38;;;;;;;9.13;4.43;;;4.20;91.60;;;;;;5010364;28;20345;-70
2022/02/13 05:22:03;;;;;;;14.32;4.50;;;4.20;91.40;;;;;;5010270;28;20096;-69
2022/02/13 05:24:34;;;;;;;10.15;4.30;;;4.20;91.60;;;;;;5010500;28;20107;-69
2022/02/13 05:27:00;;;;;;;9.73;5.10;;;4.20;91.40;;;;;;5010395;28;20038;-69
2022/02/13 05:29:25;;;;;;;8.48;4.20;;;4.20;91.40;;;;;;5010244;28;20047;-70
2022/02/13 05:31:51;;;;;;;10.68;4.53;;;4.20;91.30;;;;;;5010176;28;20049;-70
2022/02/13 05:34:17;;;;;;;9.77;4.10;;;4.10;91.30;;;;;;5010406;28;20363;-69
2022/02/13 05:36:43;;;;;;;10.73;4.25;;;4.20;91.30;;;;;;5010467;28;20034;-69
2022/02/13 05:39:09;;;;;;;5.85;3.28;;;4.10;91.20;;;;;;4993187;28;20057;-70
2022/02/13 05:41:35;;;;;;;9.90;4.50;;;4.10;91.20;;;;;;5010196;28;20026;-70
2022/02/13 05:44:01;;;;;;;11.00;4.40;;;4.10;91.30;;;;;;5010011;28;20060;-70
2022/02/13 05:46:29;;;;;;;6.15;3.80;;;4.00;91.30;;;;;;5010011;28;20057;-70
2022/02/13 05:48:55;;;;;;;;;;;4.00;91.40;;;;;;4993215;28;20030;-71
2022/02/13 05:51:23;;;;;;;7.95;4.05;;;4.00;91.30;;;;;;5010467;28;19959;-70
2022/02/13 05:53:58;;;;;;;9.43;4.25;;;3.90;91.40;;;;;;5010404;28;20022;-70
2022/02/13 05:56:24;;;;;;;9.00;4.22;;;3.80;91.50;;;;;;5013698;28;20033;-70
2022/02/13 05:58:51;;;;;;;9.00;4.45;;;3.80;91.60;;;;;;5013674;28;20034;-70
2022/02/13 06:01:17;;;;;;;12.70;4.70;;;3.90;91.60;;;;;;5013553;28;20034;-70
2022/02/13 06:03:43;;;;;;;10.38;4.18;;;3.80;91.60;;;;;;5013468;28;20263;-70
2022/02/13 06:06:09;;;;;;;11.05;4.38;;;3.80;91.60;;;;;;4996557;28;20042;-70
2022/02/13 06:08:35;;;;;;;12.45;4.25;;;3.90;91.60;;;;;;5013624;28;20112;-70
2022/02/13 06:11:00;;;;;;;10.40;4.03;;;3.90;91.50;;;;;;4995867;28;20049;-70
2022/02/13 06:13:26;;;;;;;8.85;4.07;;;3.90;91.60;;;;;;4995959;28;20045;-70
2022/02/13 06:15:52;;;;;;;9.30;4.15;;;3.90;91.60;;;;;;5013501;28;20022;-70
2022/02/13 06:18:17;;;;;;;7.40;3.92;;;3.80;91.60;;;;;;5013780;28;20063;-70
2022/02/13 06:20:43;;;;;;;12.75;4.25;;;3.80;91.50;;;;;;5013313;28;20030;-70
2022/02/13 06:23:10;;;;;;;8.98;4.10;;;3.80;91.60;;;;;;5013119;28;20463;-70
2022/02/13 06:25:37;;;;;;;8.13;4.32;;;3.80;91.60;;;;;;5013087;28;20037;-70
2022/02/13 06:28:03;;;;;;;12.43;4.18;;;3.80;91.60;;;;;;5013252;28;20411;-70
2022/02/13 06:30:28;;;;;;;13.55;4.70;;;3.90;91.50;;;;;;4994736;28;20030;-70
2022/02/13 06:32:55;;;;;;;9.13;4.22;;;3.90;91.60;;;;;;4993613;28;20101;-71
2022/02/13 06:35:24;;;;;;;7.57;4.13;;;3.90;91.70;;;;;;4993475;28;20054;-69
2022/02/13 06:37:50;;;;;;;9.98;4.30;;;4.00;91.70;;;;;;4993475;28;20458;-70
2022/02/13 06:40:16;;;;;;;11.23;3.92;;;4.00;91.70;;;;;;4993070;28;20117;-71
2022/02/13 06:42:41;;;;;;;14.13;4.70;;;4.00;91.60;;;;;;4993164;28;20117;-70
2022/02/13 06:45:08;;;;;;;8.80;3.45;;;4.00;91.60;;;;;;4993710;28;20033;-70
2022/02/13 06:47:34;;;;;;;13.30;5.60;;;4.10;91.60;;;;;;4993018;28;20045;-71
2022/02/13 06:50:00;;;;;;;13.95;5.05;;;3.90;91.50;;;;;;5002122;28;20034;-69
2022/02/13 06:52:25;;;;;;;8.70;4.32;;;3.90;91.60;;;;;;5012711;28;20057;-70
2022/02/13 06:54:51;;;;;;;11.48;4.80;;;3.90;91.60;;;;;;5012559;28;20039;-71
2022/02/13 06:57:16;;;;;;;13.55;5.55;;;3.90;91.60;;;;;;5009463;28;20027;-70
2022/02/13 06:59:42;;;;;;;9.70;4.68;;;3.90;91.60;;;;;;4993523;28;20452;-70
2022/02/13 07:02:11;;;;;;;13.65;5.85;;;3.90;91.70;;;;;;4992996;28;20022;-71
2022/02/13 07:04:37;;;;;;;17.67;6.20;;;3.90;91.70;;;;;;4993041;28;20065;-72
2022/02/13 07:07:04;;;;;;;15.50;6.13;;;3.80;91.70;;;;;;4992583;28;20035;-71
2022/02/13 07:09:30;;;;;;;10.77;4.65;;;3.80;91.60;;;;;;4993237;28;20026;-70
2022/02/13 07:11:58;;;;;;;10.90;4.30;;;3.90;91.50;;;;;;4992716;28;20038;-70
2022/02/13 07:14:25;;;;;;;11.27;4.90;;;3.90;91.50;;;;;;4992830;28;20050;-71
2022/02/13 07:16:51;;;;;;;14.52;4.70;;;3.80;91.50;;;;;;4975463;28;20170;-69
2022/02/13 07:19:17;;;;;;;11.45;4.57;;;3.90;91.40;;;;;;4992701;28;20125;-71
2022/02/13 07:21:42;;;;;;;14.13;3.88;;;3.80;91.40;;;;;;4992539;28;20161;-71
2022/02/13 07:28:58;;;;;;;10.35;3.90;;;3.70;91.50;;;;;;4968939;28;20416;-74
2022/02/13 07:30:50;;;;;;;9.35;4.00;;;3.80;91.50;;;;;;4972843;28;20345;-75
2022/02/13 07:33:16;;;;;;;13.23;4.30;;;3.80;91.50;;;;;;4973307;28;20027;-76
2022/02/13 07:35:43;;;;;;;16.08;4.68;;;3.70;91.40;;;;;;4973218;28;20118;-73
2022/02/13 07:38:09;;;;;;;14.30;4.43;;;3.80;91.50;;;;;;4973189;28;20520;-73
2022/02/13 07:40:35;;;;;;;13.13;4.75;;;3.80;91.50;;;;;;4972758;28;20093;-72
2022/02/13 07:43:01;;;;;;;8.93;4.45;;;3.80;91.40;;;;;;4973120;28;20035;-73
2022/02/13 07:45:26;;;;;;;11.00;4.82;;;3.90;91.40;;;;;;4973263;28;20223;-74
2022/02/13 07:47:52;;;;;;;8.40;4.32;;;3.90;91.30;;;;;;4973156;28;20031;-73
2022/02/13 07:50:18;;;;;;;12.40;4.93;;;4.00;91.20;;;;;;4972738;28;20031;-73
2022/02/13 07:52:43;;;;;;;17.05;7.47;;;4.00;91.10;;;;;;4972675;28;20066;-74
2022/02/13 07:55:09;;;;;;;10.77;4.80;;;4.10;91.10;;;;;;4972699;28;20487;-72
2022/02/13 07:57:35;;;;;;;13.52;4.88;;;4.10;90.80;;;;;;4987452;28;20022;-74
2022/02/13 08:00:00;;;;;;;13.20;4.55;;;4.10;90.90;;;;;;4973273;28;20035;-74
2022/02/13 08:02:26;;;;;;;15.13;5.07;;;4.10;90.80;;;;;;4972453;28;20105;-73
2022/02/13 08:04:51;;;;;;;12.18;5.18;;;4.20;90.80;;;;;;4971406;28;20349;-79
2022/02/13 08:07:17;;;;;;;13.45;5.25;;;4.20;90.70;;;;;;4972438;28;20114;-73
2022/02/13 08:09:42;;;;;;;14.90;5.07;;;4.30;90.70;;;;;;4972274;28;20334;-75
2022/02/13 08:12:09;;;;;;;11.07;5.10;;;4.40;90.50;;;;;;4972916;28;20527;-72
2022/02/13 08:14:35;;;;;;;11.52;4.88;;;4.40;90.30;;;;;;4972435;28;20707;-73
2022/02/13 08:17:01;;;;;;;13.40;6.65;;;4.60;90.20;;;;;;4971598;28;20042;-74
2022/02/13 08:19:27;;;;;;;15.80;6.00;;;4.50;90.00;;;;;;4972212;28;20030;-74
2022/02/13 08:21:52;;;;;;;13.48;4.53;;;4.60;89.90;;;;;;4972189;28;20023;-74
2022/02/13 08:24:18;;;;;;;15.50;5.38;;;4.70;89.30;;;;;;4972673;28;20023;-74
2022/02/13 08:26:44;;;;;;;12.02;5.00;;;4.80;89.00;;;;;;4972396;28;20156;-73
2022/02/13 08:29:10;;;;;;;10.90;5.40;;;4.80;88.60;;;;;;4982552;28;20046;-77
2022/02/13 08:31:35;;;;;;;14.50;5.60;;;4.80;88.30;;;;;;4991482;28;20383;-77
2022/02/13 08:34:01;;;;;;;13.80;5.22;;;4.90;88.00;;;;;;4991513;28;20466;-76
2022/02/13 08:36:26;;;;;;;13.13;5.20;;;4.90;87.60;;;;;;4991966;28;20042;-78
2022/02/13 08:38:52;;;;;;;12.57;5.20;;;4.90;87.60;;;;;;4991771;28;20128;-76
2022/02/13 08:41:18;;;;;;;18.85;5.75;;;5.00;87.30;;;;;;4991620;28;20041;-76
2022/02/13 08:43:43;;;;;;;13.88;5.47;;;5.10;87.10;;;;;;4991397;28;20113;-75
2022/02/13 08:46:09;;;;;;;12.82;5.82;;;5.20;87.20;;;;;;4990327;28;20086;-76
2022/02/13 08:48:34;;;;;;;9.65;4.90;;;5.30;87.00;;;;;;4991282;28;20026;-76
2022/02/13 08:51:00;;;;;;;12.98;4.93;;;5.40;86.60;;;;;;4991675;28;20032;-77
2022/02/13 08:53:26;;;;;;;12.32;5.13;;;5.80;85.70;;;;;;4991128;28;20065;-75
2022/02/13 08:55:52;;;;;;;12.80;5.50;;;6.10;84.70;;;;;;4991367;28;20056;-74
2022/02/13 08:58:17;;;;;;;13.50;5.43;;;6.40;84.00;;;;;;4990912;28;20368;-75
2022/02/13 09:00:43;;;;;;;10.88;5.22;;;6.50;82.80;;;;;;4991033;28;20042;-75
2022/02/13 09:03:08;;;;;;;8.50;4.38;;;6.70;82.20;;;;;;4974576;28;20400;-71
2022/02/13 09:05:34;;;;;;;10.63;4.70;;;7.00;82.60;;;;;;4991049;28;20421;-70
2022/02/13 09:08:02;;;;;;;13.05;5.00;;;7.20;81.40;;;;;;4990973;28;20042;-73
2022/02/13 09:10:28;;;;;;;9.68;4.90;;;7.40;81.50;;;;;;5002747;28;20045;-72
2022/02/13 09:12:54;;;;;;;11.65;4.45;;;7.50;80.30;;;;;;5010572;28;20219;-71
2022/02/13 09:15:20;;;;;;;10.32;4.43;;;7.50;80.20;;;;;;4993806;28;20036;-71
2022/02/13 09:17:46;;;;;;;11.13;5.03;;;7.60;80.00;;;;;;4993604;28;20057;-71
2022/02/13 09:20:12;;;;;;;11.85;5.40;;;7.70;80.10;;;;;;5010981;28;20022;-72
2022/02/13 09:22:38;;;;;;;15.38;4.97;;;7.80;78.40;;;;;;5010668;28;20189;-73
2022/02/13 09:25:03;;;;;;;18.67;5.03;;;7.90;78.00;;;;;;5010571;28;20117;-72
2022/02/13 09:27:29;;;;;;;9.57;4.80;;;7.80;77.40;;;;;;5011339;28;20041;-72
2022/02/13 09:29:55;;;;;;;9.65;4.47;;;7.90;77.60;;;;;;5013384;28;20046;-70
2022/02/13 09:32:21;;;;;;;12.45;4.95;;;7.90;76.60;;;;;;5014735;28;20109;-70
2022/02/13 09:34:47;;;;;;;11.23;4.30;;;8.00;76.40;;;;;;5014644;28;20033;-70
2022/02/13 09:37:12;;;;;;;8.43;4.00;;;8.30;77.10;;;;;;5014620;28;20041;-70
2022/02/13 09:39:38;;;;;;;12.38;5.18;;;8.30;75.50;;;;;;5014070;28;20462;-70
2022/02/13 09:42:05;;;;;;;11.95;4.40;;;8.30;75.50;;;;;;5014811;28;20034;-71
2022/02/13 09:44:30;;;;;;;16.55;4.50;;;8.10;74.80;;;;;;5014562;28;20033;-71
2022/02/13 09:46:56;;;;;;;9.90;4.07;;;8.10;74.70;;;;;;5014423;28;20092;-71
2022/02/13 09:49:22;;;;;;;9.13;4.68;;;8.10;74.80;;;;;;5014237;28;20030;-72
2022/02/13 09:51:48;;;;;;;12.88;4.95;;;8.00;74.60;;;;;;5014364;28;20436;-73
2022/02/13 09:54:15;;;;;;;11.82;4.45;;;7.90;74.80;;;;;;5014661;28;20112;-72
2022/02/13 09:56:40;;;;;;;8.70;4.03;;;8.00;74.80;;;;;;5013837;28;20355;-74
2022/02/13 09:59:09;;;;;;;12.65;4.13;;;8.00;74.70;;;;;;5014260;28;20064;-75
2022/02/13 10:01:40;;;;;;;6.93;4.22;;;8.10;74.60;;;;;;5014420;28;20114;-72
2022/02/13 10:04:06;;;;;;;11.23;4.90;;;8.00;74.20;;;;;;5015007;28;20124;-73
2022/02/13 10:06:36;;;;;;;15.50;6.15;;;8.10;74.60;;;;;;5018394;28;20087;-74
2022/02/13 10:09:02;;;;;;;10.00;4.65;;;8.10;73.70;;;;;;5017816;28;20046;-73
2022/02/13 10:11:36;;;;;;;10.35;5.05;;;8.70;73.60;;;;;;5019050;28;20432;-73
2022/02/13 10:14:13;;;;;;;11.65;4.68;;;9.60;72.00;;;;;;5018619;28;20056;-75
2022/02/13 10:16:40;;;;;;;14.23;4.78;;;10.60;68.90;;;;;;5018149;28;20049;-74
2022/02/13 10:19:09;;;;;;;12.07;4.55;;;11.50;67.20;;;;;;4998634;28;20037;-72
2022/02/13 10:21:42;;;;;;;9.60;4.47;;;12.30;64.20;;;;;;5013861;28;20026;-70
2022/02/13 10:24:31;;;;;;;12.57;4.88;;;13.10;63.40;;;;;;5013333;28;20444;-72
2022/02/13 10:26:56;;;;;;;10.00;4.10;;;12.40;61.10;;;;;;4995708;28;20064;-73
2022/02/13 10:29:30;;;;;;;7.35;3.97;;;12.50;60.60;;;;;;5012717;28;20109;-74
2022/02/13 10:32:30;;;;;;;9.45;4.25;;;13.00;59.80;;;;;;5012830;28;20030;-73
2022/02/13 10:34:57;;;;;;;6.35;3.78;;;12.80;58.70;;;;;;5013016;28;20472;-75
2022/02/13 10:37:40;;;;;;;8.68;3.92;;;13.50;59.50;;;;;;4995702;28;20036;-74
2022/02/13 10:40:08;;;;;;;7.90;4.30;;;13.90;57.00;;;;;;5012186;28;20053;-74
2022/02/13 10:42:34;;;;;;;8.10;3.75;;;14.40;56.70;;;;;;5013218;28;20034;-71
2022/02/13 10:45:22;;;;;;;9.85;4.35;;;15.00;56.80;;;;;;4995771;28;20022;-75
2022/02/13 10:47:50;;;;;;;6.63;4.05;;;14.80;55.20;;;;;;5013014;28;20050;-73
2022/02/13 10:50:17;;;;;;;8.15;4.38;;;14.70;54.80;;;;;;5012707;28;20437;-73
2022/02/13 10:52:46;;;;;;;10.07;3.88;;;14.80;54.20;;;;;;5012862;28;20034;-73
2022/02/13 10:55:12;;;;;;;7.57;4.38;;;14.70;54.30;;;;;;5012443;28;20113;-74
2022/02/13 10:57:40;;;;;;;8.32;4.30;;;14.70;54.80;;;;;;4995292;28;20080;-72
2022/02/13 11:00:08;;;;;;;8.35;3.90;;;15.00;54.90;;;;;;5013137;28;20022;-77
2022/02/13 11:02:34;;;;;;;6.83;4.00;;;15.50;53.70;;;;;;5012168;28;20092;-71
2022/02/13 11:05:02;;;;;;;7.43;4.43;;;15.50;53.30;;;;;;5012657;28;20026;-72
2022/02/13 11:07:29;;;;;;;7.00;4.00;;;15.50;52.60;;;;;;5012574;28;20475;-74
2022/02/13 11:09:56;;;;;;;9.25;4.25;;;15.20;51.80;;;;;;5012441;28;20416;-75
2022/02/13 11:12:22;;;;;;;6.20;3.45;;;15.30;51.90;;;;;;5012905;28;20030;-72
2022/02/13 11:14:48;;;;;;;8.75;3.88;;;15.90;52.70;;;;;;5012188;28;20061;-70
2022/02/13 11:17:34;;;;;;;8.13;3.95;;;16.30;50.20;;;;;;5012031;28;20070;-69
2022/02/13 11:20:04;;;;;;;7.90;3.22;;;16.00;49.80;;;;;;4994870;28;20092;-69
2022/02/13 11:22:36;;;;;;;9.68;4.07;;;15.90;50.00;;;;;;4994562;28;20291;-69
2022/02/13 11:25:06;;;;;;;6.05;3.50;;;16.50;49.80;;;;;;4994477;28;20052;-70
2022/02/13 11:27:57;;;;;;;8.40;3.80;;;16.30;48.80;;;;;;5012563;28;20018;-73
2022/02/13 11:30:44;;;;;;;4.55;2.92;;;16.40;47.20;;;;;;5012088;28;20108;-72
2022/02/13 11:33:26;;;;;;;5.65;3.17;;;16.40;48.60;;;;;;5012433;28;20033;-73
2022/02/13 11:35:58;;;;;;;7.75;3.38;;;16.40;47.30;;;;;;5011955;28;20149;-72
2022/02/13 11:38:48;;;;;;;7.07;4.00;;;16.40;46.20;;;;;;5011828;28;20038;-70
2022/02/13 11:41:46;;;;;;;5.88;3.60;;;16.00;45.60;;;;;;5011712;28;20045;-70
2022/02/13 11:44:40;;;;;;;10.43;3.72;;;16.20;46.20;;;;;;5002595;28;20363;-73
2022/02/13 11:47:14;;;;;;;5.95;3.67;;;16.50;45.50;;;;;;5011768;28;20099;-73
2022/02/13 11:50:11;;;;;;;6.28;3.55;;;16.30;45.20;;;;;;5011605;28;20345;-71
2022/02/13 11:52:51;;;;;;;5.57;3.45;;;16.00;45.50;;;;;;4973482;28;20418;-71
2022/02/13 11:55:18;;;;;;;8.05;4.00;;;16.30;46.20;;;;;;4994153;28;20021;-71
2022/02/13 11:58:01;;;;;;;9.88;4.63;;;15.80;45.40;;;;;;5011315;28;20041;-71
2022/02/13 12:00:40;;;;;;;7.50;3.55;;;15.50;45.90;;;;;;5012261;28;20048;-71
2022/02/13 12:03:17;;;;;;;7.40;3.90;;;15.50;47.20;;;;;;5011558;28;20053;-72
2022/02/13 12:05:50;;;;;;;9.48;5.50;;;15.70;46.80;;;;;;5011744;28;20038;-72
2022/02/13 12:08:24;;;;;;;7.43;4.30;;;15.20;46.50;;;;;;4993573;28;20286;-73
2022/02/13 12:10:49;;;;;;;6.95;4.10;;;15.00;47.00;;;;;;5011157;28;20352;-74
2022/02/13 12:13:17;;;;;;;9.25;4.35;;;14.80;47.40;;;;;;5011114;28;20026;-73
2022/02/13 12:15:54;;;;;;;6.40;3.73;;;14.50;47.10;;;;;;5011433;28;20026;-72
2022/02/13 12:18:20;;;;;;;9.50;3.92;;;14.40;47.40;;;;;;5005227;28;20268;-72
2022/02/13 12:20:47;;;;;;;7.63;3.90;;;14.00;47.80;;;;;;4991586;28;20031;-72
2022/02/13 12:23:18;;;;;;;8.80;4.38;;;13.90;48.20;;;;;;4991557;28;20092;-71
2022/02/13 12:25:46;;;;;;;5.15;3.88;;;13.90;48.60;;;;;;4991501;28;20474;-71
2022/02/13 12:28:13;;;;;;;6.30;3.88;;;13.70;48.10;;;;;;4991267;28;20124;-72
2022/02/13 12:30:55;;;;;;;9.43;3.97;;;13.80;48.30;;;;;;4991186;28;20041;-71
2022/02/13 12:33:25;;;;;;;8.20;3.67;;;13.50;48.10;;;;;;4974487;28;20113;-70
2022/02/13 12:35:58;;;;;;;8.13;3.90;;;13.60;48.80;;;;;;4991755;28;20026;-74
2022/02/13 12:38:26;;;;;;;6.20;3.65;;;13.60;48.90;;;;;;4991425;28;20038;-72
2022/02/13 12:40:55;;;;;;;8.88;3.72;;;13.50;48.40;;;;;;4991396;28;20113;-73
2022/02/13 12:43:24;;;;;;;9.30;4.43;;;13.30;48.50;;;;;;4991671;28;20093;-71
2022/02/13 12:45:51;;;;;;;9.15;4.22;;;13.20;49.20;;;;;;4974174;28;20105;-73
2022/02/13 12:48:22;;;;;;;11.38;3.58;;;13.00;49.50;;;;;;4991859;28;20058;-72
2022/02/13 12:50:54;;;;;;;5.90;3.13;;;13.10;50.50;;;;;;4974235;28;20558;-71
2022/02/13 12:53:22;;;;;;;11.35;4.03;;;13.10;49.90;;;;;;4990774;28;20034;-72
2022/02/13 12:55:48;;;;;;;8.00;3.92;;;13.00;50.60;;;;;;4990949;28;20425;-72